Time;durP1;ratioP1;P1;durP2;ratioP2;P2;SDS_P1;SDS_P2;PMS_P1;PMS_P2;Temp;Humidity;BMP_temperature;BMP_pressure;BME280_temperature;BME280_humidity;BME280_pressure;Samples;Min_cycle;Max_cycle;Signal;HPM_P1;HPM_P2
2022/03/08 00:02:17;;;;;;;0.00;0.00;;;;;;;8.12;51.04;100539.97;7343004;19;20006;-61
2022/03/08 00:04:43;;;;;;;0.08;0.08;;;;;;;8.12;50.79;100539.97;7348343;19;20042;-59
2022/03/08 00:07:09;;;;;;;0.00;0.00;;;;;;;8.00;51.15;100534.03;7347507;19;20466;-59
2022/03/08 00:09:35;;;;;;;0.00;0.00;;;;;;;8.09;51.03;100547.81;7352990;19;20007;-61
2022/03/08 00:12:01;;;;;;;0.00;0.00;;;;;;;8.08;50.75;100541.75;7355027;19;19999;-61
2022/03/08 00:14:26;;;;;;;0.00;0.00;;;;;;;8.09;50.72;100560.81;7345621;19;20002;-57
2022/03/08 00:16:51;;;;;;;0.00;0.00;;;;;;;8.07;50.82;100522.69;7345756;19;21703;-61
2022/03/08 00:19:18;;;;;;;0.00;0.00;;;;;;;8.07;50.35;100514.88;7347925;19;20085;-62
2022/03/08 00:21:43;;;;;;;0.00;0.00;;;;;;;7.96;50.09;100501.19;7349718;19;20094;-60
2022/03/08 00:24:08;;;;;;;0.00;0.00;;;;;;;8.04;50.58;100501.91;7346556;19;20074;-59
2022/03/08 00:26:34;;;;;;;0.00;0.00;;;;;;;8.03;50.24;100510.59;7345268;19;20038;-60
2022/03/08 00:29:00;;;;;;;0.00;0.00;;;;;;;7.98;50.41;100502.00;7338637;19;20691;-59
2022/03/08 00:31:25;;;;;;;0.00;0.00;;;;;;;7.83;50.54;100484.03;7338584;19;20101;-59
2022/03/08 00:33:51;;;;;;;0.00;0.00;;;;;;;7.94;50.34;100494.28;7324904;19;20011;-61
2022/03/08 00:36:17;;;;;;;0.00;0.00;;;;;;;7.91;50.73;100490.00;7353024;19;20006;-61
2022/03/08 00:38:50;;;;;;;0.00;0.00;;;;;;;7.90;51.12;100479.59;7053479;19;10001017;-60
2022/03/08 00:41:16;;;;;;;0.00;0.00;;;;;;;7.90;50.99;100474.41;1617491;19;10002005;-60
2022/03/08 00:43:41;;;;;;;0.00;0.00;;;;;;;7.89;51.35;100462.28;7343960;19;20887;-60
2022/03/08 00:46:07;;;;;;;0.10;0.10;;;;;;;7.88;51.06;100452.78;7345581;19;21088;-61
2022/03/08 00:48:33;;;;;;;0.00;0.00;;;;;;;7.89;51.55;100464.91;7350676;19;20006;-60
2022/03/08 00:50:58;;;;;;;0.00;0.00;;;;;;;7.88;51.31;100474.44;7346889;19;20094;-59
2022/03/08 00:53:24;;;;;;;0.00;0.00;;;;;;;7.89;51.21;100450.16;7350152;19;20585;-58
2022/03/08 00:55:49;;;;;;;0.00;0.00;;;;;;;7.77;51.25;100434.75;7352678;19;20022;-61
2022/03/08 00:58:15;;;;;;;0.08;0.08;;;;;;;7.85;51.24;100453.66;7353159;19;20014;-60
2022/03/08 01:00:41;;;;;;;0.00;0.00;;;;;;;7.90;50.97;100456.22;7359099;19;20017;-60
2022/03/08 01:03:07;;;;;;;0.00;0.00;;;;;;;7.90;50.89;100457.06;7350829;19;20018;-59
2022/03/08 01:05:33;;;;;;;0.00;0.00;;;;;;;7.78;51.52;100444.28;7356445;19;20018;-60
2022/03/08 01:08:00;;;;;;;0.00;0.00;;;;;;;7.84;51.00;100456.31;7360774;19;20114;-61
2022/03/08 01:10:26;;;;;;;0.00;0.00;;;;;;;7.82;51.08;100448.53;7357904;19;20018;-61
2022/03/08 01:12:53;;;;;;;0.00;0.00;;;;;;;7.78;50.83;100446.88;7357808;19;20658;-61
2022/03/08 01:15:20;;;;;;;0.00;0.00;;;;;;;7.77;50.39;100435.63;7361995;19;20050;-61
2022/03/08 01:17:47;;;;;;;;;;;;;;;7.80;50.14;100439.88;7354143;19;20018;-59
2022/03/08 01:20:13;;;;;;;0.00;0.00;;;;;;;7.61;50.00;100412.50;7354354;19;20011;-60
2022/03/08 01:22:39;;;;;;;0.00;0.00;;;;;;;7.73;49.76;100427.88;7348874;19;20027;-60
2022/03/08 01:25:06;;;;;;;0.00;0.00;;;;;;;7.70;49.71;100422.72;7349113;19;20506;-61
2022/03/08 01:27:32;;;;;;;0.00;0.00;;;;;;;7.65;49.97;100411.53;7351099;19;20035;-61
2022/03/08 01:29:58;;;;;;;0.00;0.00;;;;;;;7.62;49.70;100415.06;7366146;19;20011;-61
2022/03/08 01:32:23;;;;;;;0.00;0.00;;;;;;;7.59;49.22;100393.44;7366597;19;20451;-61
2022/03/08 01:34:49;;;;;;;0.00;0.00;;;;;;;7.58;48.63;100397.78;7356071;19;20007;-61
2022/03/08 01:37:15;;;;;;;0.00;0.00;;;;;;;7.56;48.19;100383.13;7363224;19;20006;-61
2022/03/08 01:39:41;;;;;;;0.00;0.00;;;;;;;7.52;48.30;100385.75;7362583;19;21981;-59
2022/03/08 01:42:21;;;;;;;0.00;0.00;;;;;;;7.53;48.61;100379.66;7357345;19;20018;-59
2022/03/08 01:44:47;;;;;;;0.00;0.00;;;;;;;7.49;48.14;100375.41;7359376;19;20010;-60
2022/03/08 01:47:19;;;;;;;0.00;0.00;;;;;;;7.51;48.32;100360.66;7359466;19;20025;-60
2022/03/08 01:49:45;;;;;;;0.00;0.00;;;;;;;7.48;47.96;100363.28;7356400;19;20498;-61
2022/03/08 01:52:11;;;;;;;0.00;0.00;;;;;;;7.49;47.58;100352.00;7360577;19;20018;-61
2022/03/08 01:54:37;;;;;;;0.00;0.00;;;;;;;7.48;48.27;100352.03;7357041;19;20006;-60
2022/03/08 01:57:04;;;;;;;0.00;0.00;;;;;;;7.35;47.83;100312.44;7356557;19;20041;-59
2022/03/08 01:59:29;;;;;;;0.03;0.03;;;;;;;7.45;48.40;100321.78;7359406;19;20015;-61
2022/03/08 02:01:55;;;;;;;0.00;0.00;;;;;;;7.44;48.19;100317.44;7357251;19;20017;-61
2022/03/08 02:04:20;;;;;;;0.00;0.00;;;;;;;7.33;48.45;100284.75;7362157;19;20109;-61
2022/03/08 02:06:46;;;;;;;0.00;0.00;;;;;;;7.38;48.07;100301.13;7369114;19;20017;-61
2022/03/08 02:09:12;;;;;;;0.08;0.08;;;;;;;7.35;48.19;100296.84;7367364;19;20022;-61
2022/03/08 02:11:39;;;;;;;0.00;0.00;;;;;;;7.32;48.31;100296.03;7351558;19;20111;-61
2022/03/08 02:14:05;;;;;;;0.00;0.00;;;;;;;7.28;48.61;100298.66;7354723;19;20010;-61
2022/03/08 02:16:31;;;;;;;0.10;0.10;;;;;;;7.27;48.66;100288.31;7358593;19;20022;-60
2022/03/08 02:18:56;;;;;;;0.00;0.00;;;;;;;7.24;49.05;100272.75;7362648;19;20011;-61
2022/03/08 02:21:22;;;;;;;0.00;0.00;;;;;;;7.26;48.83;100276.22;7366588;19;20018;-61
2022/03/08 02:23:47;;;;;;;0.00;0.00;;;;;;;7.26;48.84;100274.47;7366230;19;20119;-59
2022/03/08 02:26:13;;;;;;;0.00;0.00;;;;;;;7.27;49.06;100264.94;7369663;19;20018;-61
2022/03/08 02:28:40;;;;;;;0.00;0.00;;;;;;;7.27;49.10;100267.53;7365885;19;20007;-61
2022/03/08 02:31:06;;;;;;;0.00;0.00;;;;;;;7.27;49.58;100238.97;7355184;19;20014;-61
2022/03/08 02:33:32;;;;;;;0.00;0.00;;;;;;;7.28;49.32;100240.66;7357908;19;20021;-60
2022/03/08 02:35:57;;;;;;;0.00;0.00;;;;;;;7.26;49.85;100238.09;7355424;19;20010;-61
2022/03/08 02:38:43;;;;;;;0.00;0.00;;;;;;;7.29;50.49;100232.00;3879218;19;10279916;-59
2022/03/08 02:41:08;;;;;;;0.00;0.00;;;;;;;7.28;50.66;100222.50;5524995;19;10001394;-61
2022/03/08 02:43:34;;;;;;;0.10;0.10;;;;;;;7.29;50.56;100211.22;7358433;19;20056;-60
2022/03/08 02:46:00;;;;;;;0.00;0.00;;;;;;;7.17;50.78;100199.31;7355345;19;20010;-60
2022/03/08 02:48:27;;;;;;;0.00;0.00;;;;;;;7.31;50.75;100208.59;7357817;19;20017;-61
2022/03/08 02:50:53;;;;;;;0.00;0.00;;;;;;;7.33;50.74;100183.47;7360821;19;20006;-61
2022/03/08 02:53:19;;;;;;;0.10;0.10;;;;;;;7.34;50.97;100226.72;7350001;19;20010;-62
2022/03/08 02:55:44;;;;;;;0.03;0.03;;;;;;;7.33;51.21;100205.09;7358605;19;20007;-62
2022/03/08 02:58:10;;;;;;;0.00;0.00;;;;;;;7.33;51.33;100186.06;7352394;19;20470;-62
2022/03/08 03:00:36;;;;;;;0.00;0.00;;;;;;;7.17;51.17;100138.72;7356473;19;20078;-60
2022/03/08 03:03:02;;;;;;;0.00;0.00;;;;;;;7.31;51.47;100165.31;7354956;19;20746;-62
2022/03/08 03:05:28;;;;;;;0.05;0.05;;;;;;;7.31;51.96;100165.31;7358739;19;20034;-60
2022/03/08 03:07:54;;;;;;;0.05;0.05;;;;;;;7.23;52.22;100141.19;7357949;19;20466;-60
2022/03/08 03:10:21;;;;;;;0.00;0.00;;;;;;;7.29;51.99;100151.47;7358596;19;20050;-61
2022/03/08 03:12:47;;;;;;;0.00;0.00;;;;;;;7.28;51.78;100123.81;7355609;19;20018;-61
2022/03/08 03:15:14;;;;;;;0.00;0.00;;;;;;;7.29;52.32;100131.56;7355140;19;20417;-62
2022/03/08 03:17:40;;;;;;;0.00;0.00;;;;;;;7.30;51.87;100116.84;7357348;19;20074;-61
2022/03/08 03:20:07;;;;;;;0.00;0.00;;;;;;;7.31;52.70;100118.56;7350316;19;20069;-61
2022/03/08 03:22:33;;;;;;;0.00;0.00;;;;;;;7.31;52.71;100102.97;7357406;19;20744;-61
2022/03/08 03:24:59;;;;;;;0.00;0.00;;;;;;;7.30;52.44;100122.06;7358109;19;20086;-62
2022/03/08 03:27:25;;;;;;;0.00;0.00;;;;;;;7.29;52.97;100104.72;7357483;19;20766;-61
2022/03/08 03:29:50;;;;;;;0.00;0.00;;;;;;;7.29;53.31;100096.94;7351750;19;20077;-60
2022/03/08 03:32:15;;;;;;;0.00;0.00;;;;;;;7.22;53.05;100082.38;7347398;19;20082;-60
2022/03/08 03:34:41;;;;;;;0.00;0.00;;;;;;;7.29;53.48;100094.34;7355148;19;20019;-61
2022/03/08 03:37:06;;;;;;;0.00;0.00;;;;;;;7.33;53.70;100085.63;7356443;19;20682;-60
2022/03/08 03:39:32;;;;;;;0.00;0.00;;;;;;;7.32;53.84;100089.09;7354742;19;20003;-61
2022/03/08 03:41:57;;;;;;;0.00;0.00;;;;;;;7.33;53.69;100070.03;7356931;19;20078;-60
2022/03/08 03:44:23;;;;;;;0.00;0.00;;;;;;;7.33;54.03;100079.56;7349002;19;20009;-61
2022/03/08 03:46:48;;;;;;;0.00;0.00;;;;;;;7.34;53.09;100082.13;7355721;19;20022;-59
2022/03/08 03:49:14;;;;;;;0.00;0.00;;;;;;;7.35;53.60;100060.47;7356584;19;20014;-61
2022/03/08 03:51:40;;;;;;;0.00;0.00;;;;;;;7.35;53.78;100052.69;7356795;19;20022;-61
2022/03/08 03:54:05;;;;;;;0.00;0.00;;;;;;;7.37;53.32;100053.50;7352161;19;20038;-61
2022/03/08 03:56:31;;;;;;;0.00;0.00;;;;;;;7.27;53.54;100028.59;7349162;19;20014;-61
2022/03/08 03:58:56;;;;;;;0.00;0.00;;;;;;;7.40;53.58;100045.66;7352955;19;20023;-60
2022/03/08 04:01:21;;;;;;;0.00;0.00;;;;;;;7.40;53.15;100032.69;7351767;19;20025;-61
2022/03/08 04:03:47;;;;;;;0.00;0.00;;;;;;;7.42;52.58;100028.28;7353861;19;20011;-61
2022/03/08 04:06:12;;;;;;;0.00;0.00;;;;;;;7.42;52.67;100023.09;7349760;19;20006;-61
2022/03/08 04:08:38;;;;;;;0.05;0.05;;;;;;;7.43;52.71;100006.63;7356171;19;20027;-60
2022/03/08 04:11:03;;;;;;;0.10;0.10;;;;;;;7.45;52.63;100004.88;7354756;19;20006;-61
2022/03/08 04:13:29;;;;;;;0.00;0.00;;;;;;;7.46;52.90;99998.78;7357770;19;20018;-61
2022/03/08 04:15:54;;;;;;;0.10;0.10;;;;;;;7.47;53.06;99995.28;7361409;19;20387;-61
2022/03/08 04:18:20;;;;;;;0.00;0.00;;;;;;;7.49;52.70;99975.31;7350223;19;20006;-60
2022/03/08 04:20:45;;;;;;;0.05;0.05;;;;;;;7.52;52.97;99990.84;7357637;19;20023;-61
2022/03/08 04:23:12;;;;;;;0.00;0.00;;;;;;;7.54;53.04;99983.00;7360420;19;21108;-60
2022/03/08 04:25:37;;;;;;;0.00;0.00;;;;;;;7.56;53.17;99977.78;7358850;19;20011;-61
2022/03/08 04:28:04;;;;;;;0.00;0.00;;;;;;;7.53;53.17;99981.31;7360459;19;20660;-60
2022/03/08 04:30:30;;;;;;;0.00;0.00;;;;;;;7.43;53.30;99952.06;7356639;19;20048;-61
2022/03/08 04:32:55;;;;;;;0.00;0.00;;;;;;;7.56;53.05;99964.81;7346287;19;20010;-60
2022/03/08 04:35:21;;;;;;;0.00;0.00;;;;;;;7.50;52.84;99951.06;7366178;19;20634;-59
2022/03/08 04:37:57;;;;;;;0.00;0.00;;;;;;;7.58;53.69;99944.84;7138255;19;10000386;-61
2022/03/08 04:40:23;;;;;;;0.00;0.00;;;;;;;7.60;53.31;99963.81;1723475;19;10002005;-61
2022/03/08 04:42:48;;;;;;;0.00;0.00;;;;;;;7.59;52.96;99946.53;7366136;19;20014;-61
2022/03/08 04:45:14;;;;;;;0.05;0.05;;;;;;;7.63;52.74;99948.19;7343808;19;20082;-61
2022/03/08 04:47:40;;;;;;;0.00;0.00;;;;;;;7.51;53.24;99942.38;7366589;19;20741;-59
2022/03/08 04:50:11;;;;;;;0.00;0.00;;;;;;;7.66;52.83;99951.56;7363011;19;20038;-62
2022/03/08 04:52:37;;;;;;;0.00;0.00;;;;;;;7.67;52.84;99939.44;7364109;19;20017;-61
2022/03/08 04:55:03;;;;;;;0.00;0.00;;;;;;;7.69;53.50;99948.03;7364618;19;20463;-61
2022/03/08 04:57:29;;;;;;;0.00;0.00;;;;;;;7.68;53.11;99941.97;7359579;19;20039;-61
2022/03/08 04:59:55;;;;;;;0.00;0.00;;;;;;;7.72;53.71;99932.38;7365927;19;20014;-62
2022/03/08 05:02:20;;;;;;;0.10;0.10;;;;;;;7.73;53.58;99934.94;7362364;19;20077;-61
2022/03/08 05:04:46;;;;;;;0.00;0.00;;;;;;;7.45;53.50;99919.13;7356769;19;20502;-61
2022/03/08 05:07:11;;;;;;;0.00;0.00;;;;;;;7.76;53.02;99947.03;7361159;19;20055;-58
2022/03/08 05:09:37;;;;;;;0.00;0.00;;;;;;;7.79;53.45;99944.31;7359280;19;20025;-61
2022/03/08 05:12:03;;;;;;;0.10;0.10;;;;;;;7.75;53.68;99927.94;7372859;19;20017;-61
2022/03/08 05:14:28;;;;;;;0.00;0.00;;;;;;;7.78;53.54;99932.22;7367740;19;20003;-60
2022/03/08 05:16:54;;;;;;;0.00;0.00;;;;;;;7.78;53.47;99919.22;7371069;19;20021;-62
2022/03/08 05:19:19;;;;;;;0.00;0.00;;;;;;;7.81;53.49;99937.38;7359573;19;20014;-61
2022/03/08 05:21:45;;;;;;;0.00;0.00;;;;;;;7.82;53.38;99897.47;7363302;19;20016;-60
2022/03/08 05:24:10;;;;;;;0.00;0.00;;;;;;;7.82;53.05;99894.88;7360458;19;20074;-61
2022/03/08 05:26:37;;;;;;;0.00;0.00;;;;;;;7.82;53.41;99897.47;7363030;19;20098;-61
2022/03/08 05:29:07;;;;;;;0.00;0.00;;;;;;;7.84;53.18;99905.25;7362924;19;20017;-61
2022/03/08 05:31:33;;;;;;;0.10;0.10;;;;;;;7.77;53.20;99904.53;7357446;19;20111;-62
2022/03/08 05:33:58;;;;;;;0.00;0.00;;;;;;;7.83;53.15;99877.53;7361352;19;20669;-61
2022/03/08 05:36:24;;;;;;;0.03;0.03;;;;;;;7.83;52.92;99894.00;7363091;19;20019;-61
2022/03/08 05:38:49;;;;;;;0.00;0.00;;;;;;;7.88;52.91;99893.88;7358767;19;20011;-62
2022/03/08 05:41:15;;;;;;;0.00;0.00;;;;;;;7.81;52.81;99880.19;7361855;19;20027;-61
2022/03/08 05:43:41;;;;;;;0.00;0.00;;;;;;;7.85;52.75;99892.19;7359344;19;20046;-61
2022/03/08 05:46:06;;;;;;;0.00;0.00;;;;;;;7.86;53.17;99893.94;7363740;19;20029;-61
2022/03/08 05:48:32;;;;;;;0.00;0.00;;;;;;;7.83;53.14;99870.59;7342406;19;20010;-60
2022/03/08 05:50:57;;;;;;;0.00;0.00;;;;;;;7.83;53.15;99887.94;7357719;19;20026;-61
2022/03/08 05:53:22;;;;;;;0.00;0.00;;;;;;;7.83;53.03;99888.78;7363820;19;20019;-61
2022/03/08 05:55:48;;;;;;;0.00;0.00;;;;;;;7.86;52.74;99899.13;7355475;19;20018;-61
2022/03/08 05:58:13;;;;;;;0.00;0.00;;;;;;;7.88;52.98;99886.06;7360690;19;20015;-61
2022/03/08 06:00:39;;;;;;;0.00;0.00;;;;;;;7.86;53.01;99888.72;7364625;19;20336;-60
2022/03/08 06:03:05;;;;;;;0.00;0.00;;;;;;;7.90;52.87;99887.72;7362451;19;20014;-62
2022/03/08 06:05:30;;;;;;;0.00;0.00;;;;;;;7.83;52.77;99894.00;7367205;19;20092;-57
2022/03/08 06:07:55;;;;;;;0.00;0.00;;;;;;;7.92;53.20;99891.16;7363191;19;20070;-61
2022/03/08 06:10:21;;;;;;;0.00;0.00;;;;;;;7.93;52.65;99886.81;7366844;19;20019;-61
2022/03/08 06:12:46;;;;;;;0.00;0.00;;;;;;;7.93;53.03;99885.06;7371530;19;20047;-61
2022/03/08 06:15:12;;;;;;;0.00;0.00;;;;;;;7.95;53.05;99893.69;7361268;19;20018;-61
2022/03/08 06:17:37;;;;;;;0.00;0.00;;;;;;;7.93;53.21;99869.47;7361059;19;20019;-60
2022/03/08 06:20:04;;;;;;;0.00;0.00;;;;;;;7.91;53.31;99866.06;7361861;19;20579;-61
2022/03/08 06:22:30;;;;;;;0.00;0.00;;;;;;;7.87;53.19;99851.44;7356893;19;20014;-61
2022/03/08 06:24:55;;;;;;;0.00;0.00;;;;;;;8.00;53.44;99865.81;7351352;19;20017;-60
2022/03/08 06:27:20;;;;;;;0.00;0.00;;;;;;;7.99;53.66;99858.91;7362894;19;20030;-60
2022/03/08 06:29:47;;;;;;;0.00;0.00;;;;;;;8.01;53.57;99854.53;7355838;19;20017;-61
2022/03/08 06:32:12;;;;;;;0.00;0.00;;;;;;;8.02;53.63;99869.25;7359980;19;20018;-61
2022/03/08 06:34:38;;;;;;;0.00;0.00;;;;;;;7.94;53.56;99824.38;7359425;19;20038;-59
2022/03/08 06:37:04;;;;;;;0.00;0.00;;;;;;;7.63;53.56;99774.09;7359855;19;20014;-59
2022/03/08 06:39:30;;;;;;;0.10;0.10;;;;;;;8.03;53.87;99849.28;7362206;19;20021;-61
2022/03/08 06:41:55;;;;;;;0.00;0.00;;;;;;;8.04;53.93;99820.66;7358677;19;20023;-61
2022/03/08 06:44:21;;;;;;;0.00;0.00;;;;;;;8.03;54.10;99824.16;7359259;19;20002;-61
2022/03/08 06:46:47;;;;;;;0.00;0.00;;;;;;;8.02;54.04;99826.78;7362737;19;20014;-61
2022/03/08 06:49:13;;;;;;;0.00;0.00;;;;;;;8.01;54.22;99820.75;7358426;19;20014;-61
2022/03/08 06:51:39;;;;;;;0.00;0.00;;;;;;;8.03;54.42;99839.75;7357476;19;20018;-61
2022/03/08 06:54:06;;;;;;;0.00;0.00;;;;;;;8.02;54.63;99825.03;7358098;19;20656;-61
2022/03/08 06:56:33;;;;;;;0.00;0.00;;;;;;;8.03;54.46;99818.94;7362959;19;20086;-61
2022/03/08 06:59:00;;;;;;;0.00;0.00;;;;;;;8.04;54.75;99819.78;7368428;19;20051;-61
2022/03/08 07:01:33;;;;;;;0.00;0.00;;;;;;;8.04;54.54;99819.78;7012445;19;10000993;-61
2022/03/08 07:04:00;;;;;;;0.00;0.00;;;;;;;7.94;55.04;99800.97;1124536;19;10002168;-61
2022/03/08 07:06:25;;;;;;;0.00;0.00;;;;;;;8.03;54.82;99818.09;1620362;19;10001592;-62
2022/03/08 07:08:53;;;;;;;0.00;0.00;;;;;;;8.04;55.33;99817.19;7361396;19;20018;-59
2022/03/08 07:11:19;;;;;;;0.00;0.00;;;;;;;8.07;55.35;99809.31;7354990;19;20015;-61
2022/03/08 07:13:45;;;;;;;0.00;0.00;;;;;;;8.09;55.29;99791.06;7357887;19;20022;-61
2022/03/08 07:16:10;;;;;;;0.00;0.00;;;;;;;8.10;55.75;99805.78;7354721;19;20094;-60
2022/03/08 07:18:36;;;;;;;0.00;0.00;;;;;;;8.11;55.68;99817.88;7358671;19;20017;-60
2022/03/08 07:21:03;;;;;;;0.00;0.00;;;;;;;8.12;55.56;99793.59;7359977;19;20015;-59
2022/03/08 07:23:28;;;;;;;0.00;0.00;;;;;;;8.12;55.88;99793.59;7358373;19;20026;-61
2022/03/08 07:25:54;;;;;;;0.00;0.00;;;;;;;8.11;56.09;99794.47;7362401;19;20006;-61
2022/03/08 07:28:19;;;;;;;0.00;0.00;;;;;;;8.13;56.07;99797.91;7354143;19;20014;-60
2022/03/08 07:30:45;;;;;;;0.10;0.10;;;;;;;8.13;56.45;99797.91;7357251;19;20018;-61
2022/03/08 07:33:10;;;;;;;0.00;0.00;;;;;;;8.10;56.58;99779.78;7354621;19;20018;-61
2022/03/08 07:35:36;;;;;;;0.00;0.00;;;;;;;8.03;56.21;99782.56;7357164;19;20400;-62
2022/03/08 07:38:01;;;;;;;0.00;0.00;;;;;;;8.13;56.21;99771.91;7352173;19;20030;-61
2022/03/08 07:40:27;;;;;;;0.00;0.00;;;;;;;8.18;56.51;99785.63;7357727;19;20031;-61
2022/03/08 07:42:52;;;;;;;0.00;0.00;;;;;;;8.19;56.58;99808.13;7355362;19;20027;-62
2022/03/08 07:45:18;;;;;;;0.00;0.00;;;;;;;8.19;56.76;99782.13;7355146;19;20015;-61
2022/03/08 07:47:43;;;;;;;0.00;0.00;;;;;;;8.21;56.46;99785.53;7360262;19;20017;-61
2022/03/08 07:50:09;;;;;;;0.00;0.00;;;;;;;8.21;56.82;99760.41;7357696;19;20649;-60
2022/03/08 07:52:35;;;;;;;0.00;0.00;;;;;;;8.24;56.80;99760.28;7352348;19;20010;-61
2022/03/08 07:55:00;;;;;;;0.00;0.00;;;;;;;8.27;56.68;99764.56;7356768;19;20018;-61
2022/03/08 07:57:25;;;;;;;0.00;0.00;;;;;;;8.26;56.36;99752.44;7354420;19;20105;-59
2022/03/08 07:59:51;;;;;;;0.00;0.00;;;;;;;8.27;56.82;99761.97;7354896;19;20006;-61
2022/03/08 08:02:16;;;;;;;0.00;0.00;;;;;;;8.30;56.66;99785.28;7356939;19;20053;-62
2022/03/08 08:04:42;;;;;;;0.00;0.00;;;;;;;8.29;56.86;99776.63;7351144;19;20011;-59
2022/03/08 08:07:07;;;;;;;0.00;0.00;;;;;;;8.30;56.84;99793.06;7355075;19;20014;-60
2022/03/08 08:09:33;;;;;;;0.00;0.00;;;;;;;8.28;56.85;99766.28;7354309;19;20467;-61
2022/03/08 08:11:59;;;;;;;0.00;0.00;;;;;;;8.29;57.35;99778.38;7351843;19;20050;-61
2022/03/08 08:14:25;;;;;;;0.00;0.00;;;;;;;8.29;57.23;99767.97;7352742;19;20074;-60
2022/03/08 08:16:51;;;;;;;0.00;0.00;;;;;;;8.32;57.13;99749.69;7355573;19;20046;-61
2022/03/08 08:19:16;;;;;;;0.00;0.00;;;;;;;8.30;57.38;99764.47;7347616;19;20597;-61
2022/03/08 08:21:42;;;;;;;0.00;0.00;;;;;;;8.30;57.13;99756.66;7357661;19;20003;-61
2022/03/08 08:24:08;;;;;;;0.00;0.00;;;;;;;8.28;57.54;99743.72;7357708;19;20010;-62
2022/03/08 08:26:33;;;;;;;0.00;0.00;;;;;;;8.21;57.35;99723.13;7352985;19;20026;-61
2022/03/08 08:28:59;;;;;;;0.00;0.00;;;;;;;8.35;57.68;99741.78;7355840;19;20011;-61
2022/03/08 08:31:26;;;;;;;0.00;0.00;;;;;;;8.27;58.00;99722.97;7349952;19;20006;-61
2022/03/08 08:33:52;;;;;;;0.00;0.00;;;;;;;8.37;57.56;99750.44;7355926;19;20029;-61
2022/03/08 08:36:17;;;;;;;0.00;0.00;;;;;;;8.37;57.76;99755.66;7359008;19;20010;-62
2022/03/08 08:38:43;;;;;;;0.00;0.00;;;;;;;8.37;58.06;99750.44;7360869;19;20488;-58
2022/03/08 08:41:08;;;;;;;0.00;0.00;;;;;;;8.38;57.88;99767.75;7353265;19;20090;-62
2022/03/08 08:43:34;;;;;;;0.00;0.00;;;;;;;8.39;58.48;99751.25;7353843;19;20966;-60
2022/03/08 08:45:59;;;;;;;0.00;0.00;;;;;;;8.37;58.93;99739.19;7334463;19;20015;-61
2022/03/08 08:48:26;;;;;;;0.00;0.00;;;;;;;8.39;58.15;99761.63;7351273;19;20017;-60
2022/03/08 08:50:52;;;;;;;0.00;0.00;;;;;;;8.41;58.58;99749.44;7351527;19;20022;-60
2022/03/08 08:53:18;;;;;;;0.00;0.00;;;;;;;8.41;58.80;99736.44;7352277;19;20029;-61
2022/03/08 08:55:44;;;;;;;0.00;0.00;;;;;;;8.42;58.85;99709.53;7348621;19;20014;-61
2022/03/08 08:58:09;;;;;;;0.00;0.00;;;;;;;8.43;58.48;99721.63;7343732;19;20010;-61
2022/03/08 09:00:35;;;;;;;0.00;0.00;;;;;;;8.46;58.79;99739.75;7336390;19;20030;-61
2022/03/08 09:03:01;;;;;;;0.00;0.00;;;;;;;8.43;59.30;99706.03;7348829;19;20015;-60
2022/03/08 09:05:27;;;;;;;0.00;0.00;;;;;;;8.40;59.12;99703.50;7348916;19;20014;-61
2022/03/08 09:07:53;;;;;;;0.00;0.00;;;;;;;8.47;58.76;99705.03;7337727;19;20007;-61
2022/03/08 09:10:22;;;;;;;0.00;0.00;;;;;;;8.51;59.44;99696.22;7348274;19;20041;-61
2022/03/08 09:12:50;;;;;;;0.00;0.00;;;;;;;8.52;58.88;99700.56;7350907;19;20099;-61
2022/03/08 09:15:16;;;;;;;0.00;0.00;;;;;;;8.55;59.72;99697.84;7319941;19;24351;-57
2022/03/08 09:17:47;;;;;;;0.00;0.00;;;;;;;8.59;59.80;99711.63;1318022;19;10001920;-62
2022/03/08 09:20:13;;;;;;;;;;;;;;;8.61;59.47;99702.00;7353366;19;20034;-60
2022/03/08 09:22:39;;;;;;;0.00;0.00;;;;;;;8.62;59.44;99705.44;7369903;19;19922;-61
2022/03/08 09:25:06;;;;;;;0.00;0.00;;;;;;;8.62;60.36;99695.94;7366706;19;20091;-61
2022/03/08 09:27:34;;;;;;;0.00;0.00;;;;;;;8.66;60.13;99704.47;7356284;19;20014;-60
2022/03/08 09:29:59;;;;;;;;;;;;;;;8.70;59.68;99680.91;7346706;19;20027;-60
2022/03/08 09:32:25;;;;;;;0.00;0.00;;;;;;;8.72;60.30;99683.47;7336453;19;19926;-61
2022/03/08 09:34:50;;;;;;;0.10;0.10;;;;;;;8.73;60.67;99679.97;7336352;19;20014;-61
2022/03/08 09:37:16;;;;;;;0.00;0.00;;;;;;;8.68;60.59;99666.25;7332429;19;20035;-61
2022/03/08 09:39:41;;;;;;;0.00;0.00;;;;;;;8.76;60.56;99675.50;7358217;19;20487;-61
2022/03/08 09:42:07;;;;;;;0.10;0.10;;;;;;;8.80;61.01;99678.88;7355856;19;20566;-61
2022/03/08 09:44:33;;;;;;;0.00;0.00;;;;;;;8.84;60.83;99690.88;7340242;19;20018;-61
2022/03/08 09:46:59;;;;;;;0.00;0.00;;;;;;;8.80;61.10;99655.44;7352690;19;20029;-60
2022/03/08 09:49:25;;;;;;;0.08;0.08;;;;;;;8.92;61.17;99662.88;7361036;19;20033;-60
2022/03/08 09:51:53;;;;;;;0.00;0.00;;;;;;;8.98;60.86;99662.66;7353185;19;20101;-61
2022/03/08 09:54:18;;;;;;;0.00;0.00;;;;;;;9.01;60.73;99644.31;7353741;19;21340;-62
2022/03/08 09:56:44;;;;;;;0.00;0.00;;;;;;;9.05;61.29;99635.50;7327634;19;20007;-61
2022/03/08 09:59:09;;;;;;;0.00;0.00;;;;;;;9.12;61.11;99636.16;7362181;19;20018;-61
2022/03/08 10:01:35;;;;;;;0.00;0.00;;;;;;;9.20;60.87;99646.31;7359868;19;20066;-61
2022/03/08 10:04:01;;;;;;;0.00;0.00;;;;;;;9.31;60.58;99636.38;7357934;19;20022;-61
2022/03/08 10:06:51;;;;;;;0.00;0.00;;;;;;;9.39;60.39;99634.38;7353778;19;20021;-60
2022/03/08 10:09:19;;;;;;;0.00;0.00;;;;;;;9.45;60.34;99602.88;7256076;19;2004435;-61
2022/03/08 10:11:49;;;;;;;0.00;0.00;;;;;;;9.51;60.29;99600.03;7353328;19;20125;-62
2022/03/08 10:14:39;;;;;;;0.03;0.03;;;;;;;9.61;60.10;99588.38;7363194;19;20002;-61
2022/03/08 10:17:32;;;;;;;0.00;0.00;;;;;;;9.66;59.57;99596.03;7361000;19;20047;-61
2022/03/08 10:19:58;;;;;;;0.00;0.00;;;;;;;9.66;60.00;99610.81;7264432;19;2004276;-60
2022/03/08 10:22:30;;;;;;;0.00;0.00;;;;;;;9.68;59.81;99580.31;7342690;19;20010;-61
2022/03/08 10:25:12;;;;;;;0.00;0.00;;;;;;;9.71;59.85;99567.19;7339113;19;20052;-59
2022/03/08 10:27:42;;;;;;;0.00;0.00;;;;;;;9.73;60.35;99555.81;7354641;19;20098;-57
2022/03/08 10:30:12;;;;;;;0.00;0.00;;;;;;;9.73;60.41;99575.78;7339461;19;20018;-61
2022/03/08 10:32:38;;;;;;;0.00;0.00;;;;;;;9.78;59.99;99553.88;7357468;19;20580;-60
2022/03/08 10:35:04;;;;;;;0.00;0.00;;;;;;;9.79;60.57;99580.81;7310877;19;20006;-61
2022/03/08 10:37:38;;;;;;;0.10;0.10;;;;;;;9.85;60.41;99586.63;7361630;19;20022;-61
2022/03/08 10:40:07;;;;;;;0.00;0.00;;;;;;;9.90;60.64;99589.06;7335573;19;20023;-59
2022/03/08 10:42:36;;;;;;;0.00;0.00;;;;;;;9.96;60.38;99591.44;7354474;19;20010;-61
2022/03/08 10:45:06;;;;;;;0.00;0.00;;;;;;;10.03;60.38;99600.72;7358448;19;20022;-61
2022/03/08 10:47:40;;;;;;;0.00;0.00;;;;;;;10.05;60.14;99592.84;7355499;19;20018;-59
2022/03/08 10:50:07;;;;;;;0.08;0.08;;;;;;;9.95;60.49;99591.50;7352553;19;20094;-59
2022/03/08 10:52:36;;;;;;;0.00;0.00;;;;;;;9.99;60.85;99583.50;7337012;19;20477;-61
2022/03/08 10:55:32;;;;;;;0.00;0.00;;;;;;;9.97;60.11;99572.25;7358366;19;20006;-61
2022/03/08 10:58:12;;;;;;;0.00;0.00;;;;;;;9.93;61.13;99594.16;7268297;19;2004552;-61
2022/03/08 11:00:46;;;;;;;0.00;0.00;;;;;;;9.91;60.77;99601.19;7367017;19;20010;-61
2022/03/08 11:03:13;;;;;;;0.00;0.00;;;;;;;9.88;61.02;99606.50;7365804;19;20018;-61
2022/03/08 11:05:42;;;;;;;0.00;0.00;;;;;;;9.85;61.58;99585.78;7365283;19;20759;-62
2022/03/08 11:08:08;;;;;;;0.00;0.00;;;;;;;9.84;61.63;99578.88;7368073;19;20014;-61
2022/03/08 11:10:35;;;;;;;0.00;0.00;;;;;;;9.85;61.74;99591.00;7363894;19;20010;-61
2022/03/08 11:13:02;;;;;;;0.00;0.00;;;;;;;9.84;62.08;99584.94;7367977;19;20013;-62
2022/03/08 11:15:32;;;;;;;0.00;0.00;;;;;;;9.84;61.94;99589.31;7336008;19;20526;-62
2022/03/08 11:18:00;;;;;;;0.08;0.08;;;;;;;9.88;62.24;99575.22;7347694;19;20031;-60
2022/03/08 11:20:27;;;;;;;0.00;0.00;;;;;;;9.91;62.30;99564.69;7354997;19;20014;-59
2022/03/08 11:22:55;;;;;;;0.00;0.00;;;;;;;10.01;62.20;99570.41;7319336;19;24744;-59
2022/03/08 11:25:23;;;;;;;0.00;0.00;;;;;;;10.07;62.61;99552.75;1091772;19;10002011;-61
2022/03/08 11:27:49;;;;;;;0.00;0.00;;;;;;;10.11;62.83;99562.16;7354509;19;20030;-62
2022/03/08 11:30:22;;;;;;;0.00;0.00;;;;;;;10.22;63.11;99566.09;7347587;19;20447;-61
2022/03/08 11:33:10;;;;;;;0.00;0.00;;;;;;;10.20;62.81;99573.16;7311302;19;20018;-60
2022/03/08 11:35:48;;;;;;;0.00;0.00;;;;;;;10.21;63.72;99553.97;7248706;19;2004235;-60
2022/03/08 11:38:15;;;;;;;0.05;0.05;;;;;;;10.19;63.88;99558.38;7350275;19;20010;-62